Flight Track Log - Related Links

Times and Time Zones

All times are in EDT time to prevent confusion due to time zone crossing. See the SKW4664 flight status page for this flight to view local times or setup timezone preferences in your user account.

Time Position Orientation Groundspeed Altitude Reporting Facility
EDT Latitude Longitude Course Direction KTS MPH feet Rate Location/Type
Tue 10:36:59 AM 44.8500 -93.2333 230° Southwest 155 178 1,700  Level Minneapolis TRACON
Tue 10:37:59 AM 44.8000 -93.2333 180° South 210 242 3,500 2,050 Climbing Minneapolis TRACON
Tue 10:38:59 AM 44.7833 -93.3000 251° West 244 281 5,800 2,200 Climbing Minneapolis TRACON
Tue 10:39:59 AM 44.8000 -93.4000 283° West 253 291 7,900 2,350 Climbing Minneapolis TRACON
Tue 10:40:00 AM 44.6748 -93.6505 235° Southwest  Level FlightAware Approximate
Tue 10:40:59 AM 44.7667 -93.4833 241° Southwest 253 291 10,500  Level Minneapolis TRACON
Tue 10:41:00 AM 44.6197 -93.7607 235° Southwest  Level FlightAware Approximate
Tue 10:41:17 AM 44.7519 -93.5050 226° Southwest 252 290 11,200  Level Minneapolis Center
Tue 10:42:00 AM 44.5589 -93.8630 230° Southwest  Level FlightAware Approximate
Tue 10:42:19 AM 44.7139 -93.5892 238° Southwest 256 295 13,700  Level Minneapolis Center
Tue 10:43:20 AM 44.6706 -93.6781 236° Southwest 275 316 15,500 1,756 Climbing Minneapolis Center
Tue 10:44:22 AM 44.6231 -93.7703 234° Southwest 290 334 17,300 1,951 Climbing Minneapolis Center
Tue 10:45:23 AM 44.5906 -93.8728 246° West 289 333 19,500 1,854 Climbing Minneapolis Center
Tue 10:46:25 AM 44.5544 -93.9783 244° Southwest 297 342 21,100 1,220 Climbing Minneapolis Center
Tue 10:47:26 AM 44.5197 -94.0856 246° West 301 346 22,000 439 Climbing Minneapolis Center
Tue 10:48:28 AM 44.4742 -94.2192 244° Southwest 313 360 22,000  Level Minneapolis Center
Tue 10:49:29 AM 44.4375 -94.3286 245° Southwest 314 361 22,000  Level Minneapolis Center
Tue 10:50:31 AM 44.4019 -94.4342 245° Southwest 307 353 22,000  Level Minneapolis Center
Tue 10:51:32 AM 44.3672 -94.5361 245° Southwest 295 339 22,000  Level Minneapolis Center
Tue 10:52:33 AM 44.3406 -94.6189 246° West 294 338 22,000  Level Minneapolis Center
Tue 10:53:35 AM 44.2972 -94.7414 244° Southwest 290 334 22,000  Level Minneapolis Center
Tue 10:54:37 AM 44.2625 -94.8419 244° Southwest 289 333 22,000  Level Minneapolis Center
Tue 10:55:38 AM 44.2286 -94.9422 245° Southwest 288 331 22,000  Level Minneapolis Center
Tue 10:56:40 AM 44.1867 -95.0628 244° Southwest 288 331 22,000  Level Minneapolis Center
Tue 10:57:42 AM 44.1506 -95.1639 244° Southwest 290 334 22,000  Level Minneapolis Center
Tue 10:58:43 AM 44.1161 -95.2644 245° Southwest 290 334 22,000  Level Minneapolis Center
Tue 10:59:45 AM 44.0806 -95.3644 244° Southwest 289 333 22,000  Level Minneapolis Center
Tue 11:00:46 AM 44.0447 -95.4642 243° Southwest 288 331 22,000  Level Minneapolis Center
Tue 11:02:00 AM 44.0089 -95.5667 244° Southwest 293 337 22,000  Level Minneapolis Center
Tue 11:03:01 AM 43.9639 -95.6906 243° Southwest 299 344 22,000  Level Minneapolis Center
Tue 11:04:03 AM 43.9283 -95.7925 244° Southwest 294 338 22,000 -829 Level Minneapolis Center
Tue 11:05:04 AM 43.8953 -95.8836 243° Southwest 270 311 20,300 -2,195 Descending Minneapolis Center
Tue 11:06:06 AM 43.8578 -95.9881 244° Southwest 252 290 17,500 -2,468 Descending Minneapolis Center
Tue 11:07:08 AM 43.8317 -96.0628 244° Southwest 221 254 15,200 -2,049 Descending Minneapolis Center
Tue 11:08:09 AM 43.8042 -96.1367 243° Southwest 216 249 13,300 -1,756 Descending Minneapolis Center
Tue 11:09:11 AM 43.7792 -96.2050 243° Southwest 204 235 11,600 -1,512 Descending Minneapolis Center
Tue 11:10:12 AM 43.7525 -96.2731 242° Southwest 201 231 10,200 -1,268 Descending Minneapolis Center
Tue 11:11:14 AM 43.7203 -96.3333 234° Southwest 199 229 9,000 -1,111 Descending Minneapolis Center
Tue 11:12:27 AM 43.6861 -96.3942 232° Southwest 198 228 7,700 -1,200 Descending Minneapolis Center
Tue 11:13:29 AM 43.6458 -96.4683 233° Southwest 201 231 6,300 -780 Descending Minneapolis Center
Tue 11:14:30 AM 43.6092 -96.5175 224° Southwest 194 223 6,100 -195 Descending Minneapolis Center
Tue 11:15:32 AM 43.5500 -96.5533 204° Southwest 192 221 5,900 -683 Descending Minneapolis Center
Tue 11:16:33 AM 43.5075 -96.5919 213° Southwest 190 219 4,700 -1,180 Descending Minneapolis Center

Login

Don't have an account? Register now (free) for customized features, flight alerts, and more!